createdAt,value
2023-06-14T00:02:09.265Z,99294.72
2023-06-14T00:04:37.834Z,99289.75
2023-06-14T00:07:05.973Z,99295.53
2023-06-14T00:09:34.998Z,99297.19
2023-06-14T00:12:02.982Z,99292.28
2023-06-14T00:14:30.891Z,99296.56
2023-06-14T00:16:59.828Z,99289.22
2023-06-14T00:19:28.054Z,99289.44
2023-06-14T00:21:56.411Z,99299.50
2023-06-14T00:24:24.213Z,99295.59
2023-06-14T00:26:53.349Z,99295.63
2023-06-14T00:29:21.099Z,99292.78
2023-06-14T00:31:48.838Z,99285.38
2023-06-14T00:34:16.525Z,99297.69
2023-06-14T00:36:44.295Z,99296.84
2023-06-14T00:39:12.977Z,99294.00
2023-06-14T00:41:41.289Z,99291.13
2023-06-14T00:44:10.361Z,99292.34
2023-06-14T00:46:38.118Z,99291.13
2023-06-14T00:49:05.971Z,99286.19
2023-06-14T00:51:33.717Z,99293.56
2023-06-14T00:54:01.549Z,99287.00
2023-06-14T00:56:29.508Z,99293.34
2023-06-14T00:58:58.073Z,99297.47
2023-06-14T01:01:27.258Z,99295.63
2023-06-14T01:03:55.126Z,99297.25
2023-06-14T01:06:30.386Z,99298.06
2023-06-14T01:09:08.696Z,99299.72
2023-06-14T01:11:53.041Z,99297.84
2023-06-14T01:14:23.313Z,99307.47
2023-06-14T01:16:54.491Z,99313.38
2023-06-14T01:19:26.711Z,99315.88
2023-06-14T01:21:54.624Z,99313.41
2023-06-14T01:24:26.578Z,99313.84
2023-06-14T01:26:57.891Z,99313.16
2023-06-14T01:29:28.760Z,99312.53
2023-06-14T01:31:56.720Z,99316.00
2023-06-14T01:34:24.574Z,99320.09
2023-06-14T01:36:54.187Z,99317.25
2023-06-14T01:39:24.453Z,99316.97
2023-06-14T01:41:53.751Z,99316.38
2023-06-14T01:44:22.362Z,99319.47
2023-06-14T01:46:50.673Z,99314.13
2023-06-14T01:49:18.477Z,99320.84
2023-06-14T01:51:46.147Z,99328.66
2023-06-14T01:54:13.801Z,99318.47
2023-06-14T01:56:43.123Z,99321.84
2023-06-14T01:59:10.920Z,99325.31
2023-06-14T02:01:38.673Z,99322.13
2023-06-14T02:04:07.006Z,99320.22
2023-06-14T02:06:35.600Z,99326.03
2023-06-14T02:09:04.041Z,99326.25
2023-06-14T02:11:31.854Z,99332.53
2023-06-14T02:14:01.496Z,99326.91
2023-06-14T02:16:30.835Z,99324.41
2023-06-14T02:18:58.934Z,99327.25
2023-06-14T02:21:26.641Z,99326.28
2023-06-14T02:23:54.375Z,99321.97
2023-06-14T02:26:22.078Z,99318.47
2023-06-14T02:28:49.885Z,99322.84
2023-06-14T02:31:19.162Z,99322.38
2023-06-14T02:33:46.892Z,99314.59
2023-06-14T02:36:14.562Z,99324.22
2023-06-14T02:38:42.242Z,99323.25
2023-06-14T02:41:10.087Z,99329.44
2023-06-14T02:43:37.834Z,99325.41
2023-06-14T02:46:05.967Z,99321.69
2023-06-14T02:48:35.638Z,99328.47
2023-06-14T02:51:03.362Z,99331.59
2023-06-14T02:53:31.324Z,99336.28
2023-06-14T02:55:59.180Z,99329.09
2023-06-14T02:58:27.025Z,99330.03
2023-06-14T03:00:55.101Z,99333.28
2023-06-14T03:03:25.581Z,99323.47
2023-06-14T03:05:55.723Z,99333.28
2023-06-14T03:08:28.154Z,99341.22
2023-06-14T03:10:57.172Z,99333.03
2023-06-14T03:13:25.244Z,99334.06
2023-06-14T03:15:53.147Z,99342.03
2023-06-14T03:18:25.613Z,99344.72
2023-06-14T03:20:57.986Z,99347.09
2023-06-14T03:23:26.353Z,99343.66
2023-06-14T03:25:54.756Z,99350.09
2023-06-14T03:28:22.522Z,99349.22
2023-06-14T03:30:50.277Z,99354.16
2023-06-14T03:33:18.231Z,99357.13
2023-06-14T03:35:46.173Z,99359.78
2023-06-14T03:38:15.268Z,99358.41
2023-06-14T03:40:42.938Z,99358.31
2023-06-14T03:43:10.933Z,99361.59
2023-06-14T03:45:38.686Z,99374.81
2023-06-14T03:48:07.961Z,99369.69
2023-06-14T03:50:39.018Z,99364.53
2023-06-14T03:53:06.921Z,99381.28
2023-06-14T03:58:07.124Z,99368.41
2023-06-14T04:00:35.091Z,99375.06
2023-06-14T04:03:04.642Z,99376.06
2023-06-14T04:05:32.759Z,99378.03
2023-06-14T04:08:01.876Z,99380.41
2023-06-14T04:10:30.115Z,99397.13
2023-06-14T04:12:59.238Z,99395.81
2023-06-14T04:15:29.085Z,99400.00
2023-06-14T04:17:59.396Z,99397.63
2023-06-14T04:20:27.548Z,99399.34
2023-06-14T04:22:58.221Z,99400.59
2023-06-14T04:25:27.290Z,99403.13
2023-06-14T04:27:56.380Z,99409.56
2023-06-14T04:30:27.497Z,99407.13
2023-06-14T04:32:56.965Z,99415.72
2023-06-14T04:35:26.411Z,99414.84
2023-06-14T04:37:54.607Z,99408.94
2023-06-14T04:40:22.593Z,99416.66
2023-06-14T04:42:51.861Z,99423.09
2023-06-14T04:45:19.662Z,99422.72
2023-06-14T04:47:48.937Z,99421.75
2023-06-14T04:50:19.246Z,99410.22
2023-06-14T04:52:47.048Z,99415.34
2023-06-14T04:55:14.997Z,99420.97
2023-06-14T04:57:43.032Z,99425.34
2023-06-14T05:00:13.046Z,99420.22
2023-06-14T05:02:41.761Z,99426.03
2023-06-14T05:05:12.036Z,99428.13
2023-06-14T05:07:42.329Z,99426.41
2023-06-14T05:10:10.950Z,99440.28
2023-06-14T05:12:39.409Z,99429.56
2023-06-14T05:15:09.833Z,99437.44
2023-06-14T05:17:38.368Z,99435.78
2023-06-14T05:20:07.782Z,99435.56
2023-06-14T05:22:36.803Z,99440.31
2023-06-14T05:25:04.802Z,99429.81
2023-06-14T05:27:32.639Z,99431.31
2023-06-14T05:30:00.505Z,99428.97
2023-06-14T05:32:28.303Z,99439.97
2023-06-14T05:34:56.022Z,99437.50
2023-06-14T05:37:23.785Z,99435.97
2023-06-14T05:39:53.114Z,99445.78
2023-06-14T05:42:20.831Z,99441.47
2023-06-14T05:44:48.605Z,99449.66
2023-06-14T05:47:16.538Z,99450.56
2023-06-14T05:49:44.283Z,99449.84
2023-06-14T05:52:14.029Z,99450.66
2023-06-14T05:54:42.436Z,99455.44
2023-06-14T05:57:12.874Z,99454.56
2023-06-14T05:59:41.194Z,99450.06
2023-06-14T06:02:09.090Z,99453.13
2023-06-14T06:04:37.152Z,99450.72
2023-06-14T06:07:06.324Z,99454.19
2023-06-14T06:09:34.977Z,99459.34
2023-06-14T06:12:02.716Z,99461.19
2023-06-14T06:14:31.974Z,99464.75
2023-06-14T06:17:00.248Z,99470.19
2023-06-14T06:19:28.142Z,99466.34
2023-06-14T06:21:55.893Z,99475.09
2023-06-14T06:24:24.130Z,99461.31
2023-06-14T06:26:52.054Z,99471.75
2023-06-14T06:29:19.764Z,99473.56
2023-06-14T06:31:48.924Z,99480.13
2023-06-14T06:34:16.963Z,99483.22
2023-06-14T06:36:44.895Z,99480.97
2023-06-14T06:39:12.948Z,99472.16
2023-06-14T06:41:41.025Z,99483.16
2023-06-14T06:44:10.881Z,99489.09
2023-06-14T06:46:41.295Z,99490.63
2023-06-14T06:49:12.888Z,99494.53
2023-06-14T06:51:44.115Z,99495.56
2023-06-14T06:54:12.734Z,99493.25
2023-06-14T06:56:40.784Z,99496.25
2023-06-14T06:59:08.537Z,99488.81
2023-06-14T07:01:37.771Z,99494.22
2023-06-14T07:04:05.837Z,99497.28
2023-06-14T07:06:36.379Z,99496.97
2023-06-14T07:09:05.906Z,99502.84
2023-06-14T07:11:33.673Z,99507.00
2023-06-14T07:14:01.829Z,99501.91
2023-06-14T07:16:29.643Z,99515.44
2023-06-14T07:18:57.619Z,99512.28
2023-06-14T07:21:26.733Z,99514.56
2023-06-14T07:23:56.381Z,99513.47
2023-06-14T07:26:24.779Z,99516.94
2023-06-14T07:28:52.746Z,99526.13
2023-06-14T07:31:20.664Z,99521.06
2023-06-14T07:33:48.561Z,99523.41
2023-06-14T07:36:16.752Z,99518.94
2023-06-14T07:38:44.491Z,99511.25
2023-06-14T07:41:13.619Z,99513.63
2023-06-14T07:43:41.395Z,99512.44
2023-06-14T07:46:10.183Z,99513.72
2023-06-14T07:48:38.601Z,99517.53
2023-06-14T07:51:06.481Z,99524.34
2023-06-14T07:53:34.424Z,99515.88
2023-06-14T07:56:03.662Z,99520.00
2023-06-14T07:58:32.822Z,99518.00
2023-06-14T08:01:01.206Z,99520.91
2023-06-14T08:03:29.087Z,99515.06
2023-06-14T08:05:56.987Z,99517.19
2023-06-14T08:08:24.835Z,99512.09
2023-06-14T08:10:52.608Z,99512.91
2023-06-14T08:13:20.462Z,99513.75
2023-06-14T08:15:50.044Z,99521.72
2023-06-14T08:18:17.871Z,99516.94
2023-06-14T08:20:46.011Z,99505.06
2023-06-14T08:23:14.304Z,99508.50
2023-06-14T08:25:42.087Z,99513.41
2023-06-14T08:28:09.864Z,99515.63
2023-06-14T08:30:37.632Z,99514.78
2023-06-14T08:33:15.986Z,99511.31
2023-06-14T08:35:45.815Z,99518.63
2023-06-14T08:38:14.070Z,99508.34
2023-06-14T08:40:43.669Z,99510.25
2023-06-14T08:43:11.777Z,99508.31
2023-06-14T08:45:39.607Z,99509.47
2023-06-14T08:48:10.298Z,99509.97
2023-06-14T08:50:42.987Z,99517.25
2023-06-14T08:53:20.643Z,99514.34
2023-06-14T08:55:49.610Z,99515.94
2023-06-14T08:58:17.593Z,99519.63
2023-06-14T09:00:45.899Z,99507.56
2023-06-14T09:03:16.066Z,99521.38
2023-06-14T09:05:45.048Z,99511.06
2023-06-14T09:08:13.055Z,99524.06
2023-06-14T09:10:42.596Z,99517.53
2023-06-14T09:13:10.533Z,99523.56
2023-06-14T09:15:38.465Z,99526.50
2023-06-14T09:18:07.379Z,99529.16
2023-06-14T09:20:37.082Z,99525.47
2023-06-14T09:23:06.888Z,99524.25
2023-06-14T09:25:39.985Z,99529.25
2023-06-14T09:28:10.474Z,99527.78
2023-06-14T09:30:39.541Z,99528.66
2023-06-14T09:33:07.584Z,99523.09
2023-06-14T09:35:37.465Z,99525.47
2023-06-14T09:38:05.707Z,99524.34
2023-06-14T09:40:37.786Z,99532.28
2023-06-14T09:43:07.794Z,99537.88
2023-06-14T09:45:35.657Z,99524.84
2023-06-14T09:48:08.037Z,99526.63
2023-06-14T09:50:38.000Z,99520.63
2023-06-14T09:53:09.079Z,99522.72
2023-06-14T09:55:39.222Z,99535.78
2023-06-14T09:58:09.369Z,99527.59
2023-06-14T10:00:39.455Z,99525.19
2023-06-14T10:03:13.450Z,99533.09
2023-06-14T10:05:45.789Z,99537.22
2023-06-14T10:08:18.037Z,99536.09
2023-06-14T10:10:46.531Z,99531.03
2023-06-14T10:13:15.612Z,99532.47
2023-06-14T10:15:53.279Z,99525.34
2023-06-14T10:18:28.218Z,99515.44
2023-06-14T10:21:09.857Z,99525.94
2023-06-14T10:23:43.870Z,99528.34
2023-06-14T10:26:20.808Z,99528.72
2023-06-14T10:28:59.269Z,99531.81
2023-06-14T10:31:43.024Z,99531.06
2023-06-14T10:34:11.416Z,99527.72
2023-06-14T10:36:45.106Z,99514.44
2023-06-14T10:39:18.073Z,99523.06
2023-06-14T10:41:54.593Z,99523.88
2023-06-14T10:44:41.899Z,99521.31
2023-06-14T10:47:11.478Z,99521.09
2023-06-14T10:49:44.356Z,99525.03
2023-06-14T10:52:20.136Z,99519.69
2023-06-14T10:55:10.290Z,99526.00
2023-06-14T10:57:50.959Z,99524.59
2023-06-14T11:00:24.616Z,99525.13
2023-06-14T11:03:37.418Z,99532.47
2023-06-14T11:06:17.108Z,99520.16
2023-06-14T11:09:13.555Z,99514.41
2023-06-14T11:11:44.864Z,99528.34
2023-06-14T11:14:12.735Z,99519.22
2023-06-14T11:16:40.629Z,99527.78
2023-06-14T11:19:08.620Z,99523.66
2023-06-14T11:21:37.009Z,99522.41
2023-06-14T11:24:06.681Z,99523.84
2023-06-14T11:26:35.896Z,99520.19
2023-06-14T11:29:04.010Z,99523.56
2023-06-14T11:31:32.131Z,99515.69
2023-06-14T11:34:01.683Z,99516.59
2023-06-14T11:36:31.564Z,99513.25
2023-06-14T11:39:04.096Z,99522.28
2023-06-14T11:41:38.909Z,99518.78
2023-06-14T11:44:07.213Z,99518.06
2023-06-14T11:46:35.694Z,99516.84
2023-06-14T11:49:05.604Z,99515.25
2023-06-14T11:51:34.827Z,99501.06
2023-06-14T11:54:04.024Z,99506.72
2023-06-14T11:56:32.960Z,99515.81
2023-06-14T11:59:02.377Z,99505.16
2023-06-14T12:01:32.129Z,99511.16
2023-06-14T12:04:01.754Z,99509.22
2023-06-14T12:06:34.566Z,99505.59
2023-06-14T12:09:07.393Z,99497.28
2023-06-14T12:11:37.930Z,99493.19
2023-06-14T12:14:08.102Z,99495.66
2023-06-14T12:16:36.855Z,99504.97
2023-06-14T12:19:12.368Z,99511.63
2023-06-14T12:21:41.389Z,99496.63
2023-06-14T12:24:13.095Z,99504.78
2023-06-14T12:26:42.159Z,99487.88
2023-06-14T12:29:13.894Z,99488.44
2023-06-14T12:31:42.210Z,99483.34
2023-06-14T12:34:10.162Z,99495.66
2023-06-14T12:36:42.832Z,99487.38
2023-06-14T12:39:11.029Z,99498.19
2023-06-14T12:41:39.035Z,99482.00
2023-06-14T12:44:06.866Z,99504.34
2023-06-14T12:46:37.831Z,99503.41
2023-06-14T12:49:06.473Z,99495.09
2023-06-14T12:51:34.220Z,99487.34
2023-06-14T12:54:02.306Z,99497.84
2023-06-14T12:56:30.951Z,99500.31
2023-06-14T12:58:58.808Z,99493.69
2023-06-14T13:01:27.053Z,99495.94
2023-06-14T13:03:56.315Z,99492.59
2023-06-14T13:06:24.344Z,99498.78
2023-06-14T13:08:52.132Z,99487.09
2023-06-14T13:11:20.113Z,99496.59
2023-06-14T13:13:47.777Z,99504.88
2023-06-14T13:16:15.820Z,99498.63
2023-06-14T13:18:43.747Z,99494.69
2023-06-14T13:21:12.977Z,99493.88
2023-06-14T13:23:40.806Z,99488.97
2023-06-14T13:26:08.567Z,99501.63
2023-06-14T13:28:36.445Z,99497.59
2023-06-14T13:31:04.917Z,99501.56
2023-06-14T13:33:34.131Z,99506.50
2023-06-14T13:36:02.039Z,99505.25
2023-06-14T13:38:31.200Z,99502.25
2023-06-14T13:40:58.980Z,99499.50
2023-06-14T13:43:26.970Z,99504.47
2023-06-14T13:54:16.070Z,99489.81
2023-06-14T13:56:44.474Z,99486.53
2023-06-14T14:01:58.573Z,99493.38
2023-06-14T14:09:59.162Z,99498.94
2023-06-14T14:12:26.944Z,99495.44
2023-06-14T14:14:54.796Z,99490.63
2023-06-14T14:17:22.819Z,99481.53
2023-06-14T14:22:36.314Z,99497.19
2023-06-14T14:27:51.508Z,99490.19
2023-06-14T14:30:21.561Z,99483.78
2023-06-14T14:32:49.395Z,99480.56
2023-06-14T14:35:17.621Z,99480.28
2023-06-14T14:37:45.521Z,99482.19
2023-06-14T14:40:15.625Z,99488.69
2023-06-14T14:42:44.470Z,99485.84
2023-06-14T14:45:12.755Z,99491.41
2023-06-14T14:47:40.673Z,99490.66
2023-06-14T14:50:09.946Z,99494.06
2023-06-14T14:52:38.176Z,99489.97
2023-06-14T14:55:07.179Z,99488.84
2023-06-14T14:57:37.482Z,99498.59
2023-06-14T15:00:06.678Z,99490.50
2023-06-14T15:02:34.761Z,99485.41
2023-06-14T15:05:03.643Z,99489.63
2023-06-14T15:07:34.654Z,99487.00
2023-06-14T15:10:02.456Z,99491.56
2023-06-14T15:12:31.125Z,99488.59
2023-06-14T15:15:00.453Z,99484.31
2023-06-14T15:17:28.893Z,99491.41
2023-06-14T15:19:56.892Z,99485.88
2023-06-14T15:22:24.682Z,99492.19
2023-06-14T15:24:52.862Z,99488.53
2023-06-14T15:27:20.756Z,99481.81
2023-06-14T15:29:51.328Z,99486.00
2023-06-14T15:32:21.057Z,99477.09
2023-06-14T15:34:49.549Z,99499.59
2023-06-14T15:37:17.499Z,99497.22
2023-06-14T15:39:45.357Z,99479.78
2023-06-14T15:42:13.173Z,99481.03
2023-06-14T15:44:42.635Z,99485.34
2023-06-14T15:47:10.457Z,99476.81
2023-06-14T15:49:39.507Z,99472.72
2023-06-14T15:52:08.233Z,99468.22
2023-06-14T15:54:36.038Z,99465.28
2023-06-14T15:57:04.240Z,99464.34
2023-06-14T15:59:31.969Z,99463.94
2023-06-14T16:01:59.818Z,99468.28
2023-06-14T16:04:27.808Z,99471.97
2023-06-14T16:06:57.050Z,99469.47
2023-06-14T16:09:24.867Z,99475.22
2023-06-14T16:11:52.690Z,99470.28
2023-06-14T16:14:20.464Z,99470.28
2023-06-14T16:16:49.848Z,99479.13
2023-06-14T16:19:19.338Z,99487.88
2023-06-14T16:21:47.117Z,99486.34
2023-06-14T16:24:16.459Z,99482.69
2023-06-14T16:26:44.593Z,99477.97
2023-06-14T16:29:12.309Z,99486.56
2023-06-14T16:31:40.156Z,99473.47
2023-06-14T16:34:12.248Z,99478.75
2023-06-14T16:36:40.307Z,99480.69
2023-06-14T16:39:08.034Z,99477.88
2023-06-14T16:41:37.349Z,99476.59
2023-06-14T16:44:06.123Z,99478.03
2023-06-14T16:46:35.391Z,99482.91
2023-06-14T16:49:04.237Z,99480.66
2023-06-14T16:51:32.045Z,99476.34
2023-06-14T16:53:59.948Z,99483.19
2023-06-14T16:56:28.738Z,99478.47
2023-06-14T16:58:58.803Z,99483.72
2023-06-14T17:01:27.886Z,99484.22
2023-06-14T17:03:55.957Z,99492.91
2023-06-14T17:06:25.167Z,99485.00
2023-06-14T17:08:54.057Z,99489.78
2023-06-14T17:11:23.600Z,99498.84
2023-06-14T17:13:51.706Z,99498.31
2023-06-14T17:16:21.606Z,99504.94
2023-06-14T17:18:49.723Z,99507.50
2023-06-14T17:21:17.690Z,99510.94
2023-06-14T17:23:45.619Z,99513.25
2023-06-14T17:26:13.657Z,99527.28
2023-06-14T17:28:41.459Z,99522.19
2023-06-14T17:31:09.483Z,99523.22
2023-06-14T17:33:38.837Z,99521.88
2023-06-14T17:36:06.990Z,99522.75
2023-06-14T17:38:34.803Z,99520.81
2023-06-14T17:41:02.648Z,99526.81
2023-06-14T17:43:30.504Z,99523.53
2023-06-14T17:45:59.732Z,99528.44
2023-06-14T17:48:27.590Z,99524.91
2023-06-14T17:50:56.784Z,99532.50
2023-06-14T17:53:24.867Z,99533.59
2023-06-14T17:55:54.089Z,99535.16
2023-06-14T17:58:22.570Z,99534.09
2023-06-14T18:00:51.408Z,99536.25
2023-06-14T18:03:19.851Z,99542.53
2023-06-14T18:05:47.848Z,99532.16
2023-06-14T18:08:17.055Z,99532.16
2023-06-14T18:10:44.875Z,99533.03
2023-06-14T18:13:12.781Z,99532.78
2023-06-14T18:15:40.612Z,99534.34
2023-06-14T18:18:08.577Z,99540.03
2023-06-14T18:20:36.365Z,99539.81
2023-06-14T18:23:04.322Z,99538.75
2023-06-14T18:25:33.950Z,99544.69
2023-06-14T18:28:01.931Z,99543.69
2023-06-14T18:30:29.811Z,99540.03
2023-06-14T18:32:59.786Z,99541.38
2023-06-14T18:35:28.187Z,99555.22
2023-06-14T18:37:55.992Z,99557.28
2023-06-14T18:40:23.962Z,99558.34
2023-06-14T18:42:53.173Z,99556.22
2023-06-14T18:45:21.787Z,99558.69
2023-06-14T18:47:50.087Z,99561.56
2023-06-14T18:50:19.104Z,99557.53
2023-06-14T18:52:47.531Z,99558.69
2023-06-14T18:55:16.037Z,99564.88
2023-06-14T18:57:43.954Z,99565.66
2023-06-14T19:00:14.894Z,99565.41
2023-06-14T19:02:43.123Z,99569.41
2023-06-14T19:05:13.750Z,99565.69
2023-06-14T19:07:41.555Z,99567.50
2023-06-14T19:10:10.061Z,99572.66
2023-06-14T19:12:38.380Z,99577.25
2023-06-14T19:15:08.095Z,99575.22
2023-06-14T19:17:37.323Z,99587.19
2023-06-14T19:20:06.523Z,99589.31
2023-06-14T19:22:34.538Z,99581.38
2023-06-14T19:25:02.653Z,99590.94
2023-06-14T19:27:30.804Z,99589.03
2023-06-14T19:30:00.003Z,99589.47
2023-06-14T19:32:28.001Z,99583.75
2023-06-14T19:34:58.732Z,99587.09
2023-06-14T19:37:27.930Z,99598.56
2023-06-14T19:39:56.195Z,99597.97
2023-06-14T19:42:24.080Z,99603.47
2023-06-14T19:44:52.048Z,99602.97
2023-06-14T19:47:20.033Z,99612.75
2023-06-14T19:49:47.882Z,99612.03
2023-06-14T19:52:17.121Z,99613.47
2023-06-14T19:54:44.870Z,99618.72
2023-06-14T19:57:13.051Z,99621.19
2023-06-14T19:59:40.948Z,99619.72
2023-06-14T20:02:09.696Z,99629.47
2023-06-14T20:04:38.319Z,99630.94
2023-06-14T20:07:07.437Z,99632.81
2023-06-14T20:09:36.945Z,99637.16
2023-06-14T20:12:05.434Z,99640.91
2023-06-14T20:14:35.616Z,99643.34
2023-06-14T20:17:03.482Z,99652.91
2023-06-14T20:19:31.463Z,99647.28
2023-06-14T20:21:59.246Z,99645.53
2023-06-14T20:24:27.103Z,99644.88
2023-06-14T20:26:56.355Z,99646.53
2023-06-14T20:29:24.174Z,99648.63
2023-06-14T20:31:52.212Z,99646.19
2023-06-14T20:34:19.933Z,99646.94
2023-06-14T20:36:47.707Z,99649.47
2023-06-14T20:39:15.581Z,99654.09
2023-06-14T20:41:43.410Z,99665.22
2023-06-14T20:44:12.649Z,99659.34
2023-06-14T20:46:44.464Z,99655.75
2023-06-14T20:49:13.712Z,99657.31
2023-06-14T20:51:41.722Z,99653.56
2023-06-14T20:54:09.542Z,99660.41
2023-06-14T20:56:37.320Z,99660.31
2023-06-14T20:59:05.097Z,99662.78
2023-06-14T21:01:36.524Z,99663.03
2023-06-14T21:04:05.072Z,99667.28
2023-06-14T21:06:33.533Z,99666.91
2023-06-14T21:09:01.616Z,99668.44
2023-06-14T21:11:29.485Z,99663.66
2023-06-14T21:13:57.282Z,99665.16
2023-06-14T21:16:25.179Z,99669.38
2023-06-14T21:18:54.526Z,99669.31
2023-06-14T21:21:22.301Z,99672.56
2023-06-14T21:23:50.300Z,99676.06
2023-06-14T21:26:18.283Z,99667.13
2023-06-14T21:28:46.290Z,99672.66
2023-06-14T21:31:17.005Z,99678.06
2023-06-14T21:33:45.086Z,99669.19
2023-06-14T21:36:14.385Z,99674.94
2023-06-14T21:38:42.123Z,99673.41
2023-06-14T21:41:10.994Z,99675.09
2023-06-14T21:43:39.120Z,99680.09
2023-06-14T21:46:06.958Z,99682.34
2023-06-14T21:48:34.808Z,99689.75
2023-06-14T21:51:02.693Z,99683.66
2023-06-14T21:53:32.897Z,99690.09
2023-06-14T21:56:00.682Z,99680.94
2023-06-14T21:58:28.453Z,99686.78
2023-06-14T22:00:56.345Z,99692.88
2023-06-14T22:03:24.328Z,99694.41
2023-06-14T22:05:52.385Z,99693.09
2023-06-14T22:08:20.595Z,99692.66
2023-06-14T22:10:50.416Z,99693.94
2023-06-14T22:13:18.331Z,99693.69
2023-06-14T22:15:46.664Z,99696.50
2023-06-14T22:18:14.554Z,99696.84
2023-06-14T22:20:42.877Z,99696.03
2023-06-14T22:23:10.616Z,99699.78
2023-06-14T22:25:38.320Z,99695.91
2023-06-14T22:28:07.569Z,99695.06
2023-06-14T22:30:37.318Z,99696.72
2023-06-14T22:33:05.302Z,99711.56
2023-06-14T22:35:33.357Z,99711.22
2023-06-14T22:38:01.778Z,99701.63
2023-06-14T22:40:29.968Z,99700.13
2023-06-14T22:43:01.196Z,99703.75
2023-06-14T22:45:30.985Z,99705.25
2023-06-14T22:47:59.350Z,99708.41
2023-06-14T22:50:29.138Z,99700.06
2023-06-14T22:52:57.734Z,99711.72
2023-06-14T22:55:27.477Z,99707.94
2023-06-14T22:57:55.627Z,99701.63
2023-06-14T23:00:23.568Z,99703.97
2023-06-14T23:02:53.221Z,99703.25
2023-06-14T23:05:21.990Z,99709.88
2023-06-14T23:07:49.853Z,99711.63
2023-06-14T23:10:18.961Z,99707.28
2023-06-14T23:12:47.448Z,99711.19
2023-06-14T23:15:16.212Z,99710.31
2023-06-14T23:17:45.717Z,99719.03
2023-06-14T23:20:16.652Z,99711.88
2023-06-14T23:22:44.767Z,99710.69
2023-06-14T23:25:14.756Z,99714.56
2023-06-14T23:27:44.935Z,99720.06
2023-06-14T23:30:14.695Z,99716.34
2023-06-14T23:32:42.514Z,99714.09
2023-06-14T23:35:11.607Z,99716.47
2023-06-14T23:37:40.814Z,99717.59
2023-06-14T23:40:12.886Z,99719.81
2023-06-14T23:42:42.489Z,99721.81
2023-06-14T23:45:12.520Z,99719.16
2023-06-14T23:47:41.186Z,99723.44
2023-06-14T23:50:10.163Z,99718.78
2023-06-14T23:52:41.046Z,99720.72
2023-06-14T23:55:18.216Z,99716.94
2023-06-14T23:57:46.101Z,99720.75
